Madison Township, Pennsylvania
Current Conditions -  °F | °C
As of 12:54 PM on Thursday 18 Dec 2014 (Local Time) from KAVP Reporting Station
Overcast Overcast  
Wind Chill: 27°   Ceiling: 2700
Heat Index: 35°   Visibility: 10mi
Dew Point: 24°   Wind: 10mph
Humidity: 64%   Direction: 310°NW
Pressure: 29.98"   Gusts: NA
Location:  41.3369°N, 75.5571°W
Report Text: KAVP 181754Z 31009KT 10SM OVC027 02/M04 A2998 RMK AO2 SLP157 T00171044 10022 20006 56015
Loading
Personal Weather Stations






























Interactive Weather Map New forecast layout! Learn more

10-Day Weather Forecast

Advertisements
Track Severe Weather on mobile